Time;durP1;ratioP1;P1;durP2;ratioP2;P2;SDS_P1;SDS_P2;PMS_P1;PMS_P2;Temp;Humidity;BMP_temperature;BMP_pressure;BME280_temperature;BME280_humidity;BME280_pressure;Samples;Min_cycle;Max_cycle;Signal;HPM_P1;HPM_P2
2024/04/01 00:02:26;;;;;;;1.33;0.45;;;;;;;15.25;63.15;98036.81;10388808;28;20041;-61
2024/04/01 00:07:26;;;;;;;1.30;0.50;;;;;;;15.19;62.90;98035.78;10400761;28;20856;-61
2024/04/01 00:12:27;;;;;;;1.10;0.22;;;;;;;15.12;63.43;98013.56;10403110;28;20942;-62
2024/04/01 00:17:27;;;;;;;2.05;0.40;;;;;;;15.12;63.54;98027.78;10407815;28;20060;-60
2024/04/01 00:22:28;;;;;;;1.52;0.40;;;;;;;15.02;63.82;98005.94;10404263;28;20133;-61
2024/04/01 00:27:28;;;;;;;2.22;0.20;;;;;;;15.05;63.92;98021.59;10379207;28;20156;-59
2024/04/01 00:32:30;;;;;;;2.58;0.60;;;;;;;14.85;64.31;97966.16;10380084;28;20108;-62
2024/04/01 00:37:31;;;;;;;2.97;0.57;;;;;;;14.99;64.73;97995.63;10380320;28;20135;-62
2024/04/01 00:42:33;;;;;;;1.08;0.40;;;;;;;15.10;65.45;98002.19;10398096;28;20504;-60
2024/04/01 00:47:33;;;;;;;1.48;0.47;;;;;;;15.06;65.12;97964.31;10373883;28;20133;-57
2024/04/01 00:52:34;;;;;;;2.08;0.30;;;;;;;15.07;67.23;97954.41;10388844;28;20674;-61
2024/04/01 00:57:34;;;;;;;0.90;0.30;;;;;;;14.88;68.81;97921.25;10397993;28;20189;-60
2024/04/01 01:02:35;;;;;;;1.75;0.40;;;;;;;15.04;68.90;97950.28;10399087;28;20450;-61
2024/04/01 01:07:36;;;;;;;2.17;0.30;;;;;;;14.98;70.08;97959.13;10406010;28;20052;-59
2024/04/01 01:12:40;;;;;;;1.35;0.20;;;;;;;15.00;70.60;97976.66;10412825;28;20790;-61
2024/04/01 01:17:41;;;;;;;;;;;;;;;14.98;70.60;97977.91;10398999;28;20704;-60
2024/04/01 01:22:42;;;;;;;4.13;0.50;;;;;;;14.93;71.15;97964.31;10405988;28;19927;-60
2024/04/01 01:27:43;;;;;;;1.05;0.30;;;;;;;14.94;71.13;97947.22;10405278;28;20946;-59
2024/04/01 01:32:49;;;;;;;2.28;0.57;;;;;;;14.89;71.68;97920.22;10410493;28;20133;-59
2024/04/01 01:37:51;;;;;;;1.85;0.30;;;;;;;14.73;71.62;97921.50;10381699;28;20128;-59
2024/04/01 01:42:51;;;;;;;0.73;0.30;;;;;;;14.65;72.41;97920.66;10411715;28;20239;-60
2024/04/01 01:47:51;;;;;;;0.68;0.30;;;;;;;14.60;72.72;97907.03;10406569;28;20057;-61
2024/04/01 01:52:52;;;;;;;1.48;0.43;;;;;;;14.62;73.47;97891.63;10405953;28;20307;-61
2024/04/01 01:57:52;;;;;;;1.15;0.35;;;;;;;14.47;74.61;97913.22;10387024;28;21965;-63
2024/04/01 02:02:53;;;;;;;1.73;0.22;;;;;;;14.39;75.99;97929.47;10408628;28;20059;-60
2024/04/01 02:07:54;;;;;;;0.73;0.20;;;;;;;14.31;77.43;97937.72;10407100;28;20049;-61
2024/04/01 02:12:54;;;;;;;1.88;0.35;;;;;;;14.29;79.07;97932.56;10409191;28;20048;-60
2024/04/01 02:17:54;;;;;;;1.83;0.30;;;;;;;14.32;79.73;97932.16;10410633;28;20044;-60
2024/04/01 02:22:55;;;;;;;0.85;0.20;;;;;;;14.40;80.83;97917.75;10402750;28;20050;-60
2024/04/01 02:27:55;;;;;;;0.88;0.30;;;;;;;14.43;82.13;97917.34;10400625;28;20732;-60
2024/04/01 02:32:56;;;;;;;1.50;0.80;;;;;;;14.19;83.20;97873.28;10395052;28;20146;-60
2024/04/01 02:37:56;;;;;;;3.17;0.93;;;;;;;14.43;84.14;97890.56;10377311;28;20695;-59
2024/04/01 02:42:57;;;;;;;0.65;0.20;;;;;;;14.39;83.88;97851.84;10391777;28;20057;-60
2024/04/01 02:47:57;;;;;;;6.10;0.63;;;;;;;14.29;84.75;97812.16;10389693;28;20203;-60
2024/04/01 02:52:58;;;;;;;2.83;0.52;;;;;;;14.23;82.38;97804.09;10384554;28;20518;-60
2024/04/01 02:57:58;;;;;;;2.22;0.60;;;;;;;14.10;82.44;97800.41;10379757;28;20098;-59
2024/04/01 03:02:59;;;;;;;2.65;1.13;;;;;;;14.12;84.31;97778.81;10390266;28;20088;-59
2024/04/01 03:07:59;;;;;;;3.80;1.02;;;;;;;14.15;83.38;97773.84;10403693;28;20072;-60
2024/04/01 03:13:03;;;;;;;3.55;1.05;;;;;;;14.22;81.92;97822.03;10407425;28;20056;-60
2024/04/01 03:18:04;;;;;;;;;;;;;;;14.13;83.61;97852.69;10411750;28;20128;-60
2024/04/01 03:23:04;;;;;;;3.30;0.90;;;;;;;14.09;84.74;97854.94;10406836;28;19924;-59
2024/04/01 03:28:05;;;;;;;1.95;0.55;;;;;;;14.14;84.29;97823.06;10401682;28;20419;-60
2024/04/01 03:33:06;;;;;;;3.50;0.95;;;;;;;14.13;85.14;97831.28;10398633;28;20429;-61
2024/04/01 03:38:08;;;;;;;4.30;1.40;;;;;;;14.10;85.87;97821.81;10394594;28;20132;-59
2024/04/01 03:43:09;;;;;;;3.75;1.10;;;;;;;14.10;85.94;97787.03;10402782;28;20131;-60
2024/04/01 03:48:09;;;;;;;5.38;2.08;;;;;;;14.06;85.71;97751.03;10393382;28;20071;-60
2024/04/01 03:53:10;;;;;;;3.97;1.55;;;;;;;13.85;86.82;97705.81;10410015;28;20051;-60
2024/04/01 03:58:12;;;;;;;4.07;1.92;;;;;;;13.90;88.08;97722.03;10391890;28;20076;-59
2024/04/01 04:03:12;;;;;;;3.38;1.58;;;;;;;13.87;88.19;97725.13;10357520;28;20180;-60
2024/04/01 04:08:13;;;;;;;4.95;2.10;;;;;;;13.73;89.42;97733.13;10354766;28;20040;-61
2024/04/01 04:13:14;;;;;;;6.35;1.88;;;;;;;13.66;89.14;97760.91;10413334;28;20045;-59
2024/04/01 04:18:14;;;;;;;7.78;2.47;;;;;;;13.54;89.80;97784.72;10363088;28;20691;-60
2024/04/01 04:23:15;;;;;;;4.43;1.90;;;;;;;13.62;89.94;97768.53;10395298;28;20056;-61
2024/04/01 04:28:15;;;;;;;5.05;1.40;;;;;;;13.67;88.99;97768.72;10403172;28;20063;-61
2024/04/01 04:33:16;;;;;;;3.63;1.10;;;;;;;13.44;90.92;97799.31;10405217;28;20123;-60
2024/04/01 04:38:18;;;;;;;2.10;1.10;;;;;;;13.56;90.23;97790.72;10393879;28;20057;-61
2024/04/01 04:43:18;;;;;;;0.95;0.40;;;;;;;13.54;88.27;97780.22;10405351;28;20132;-59
2024/04/01 04:48:19;;;;;;;1.73;0.45;;;;;;;13.63;88.08;97777.34;10384905;28;20053;-61
2024/04/01 04:53:19;;;;;;;1.38;0.22;;;;;;;13.64;89.03;97782.50;10402335;28;20049;-60
2024/04/01 04:58:19;;;;;;;2.17;0.28;;;;;;;13.69;88.36;97798.75;10405837;28;20052;-62
2024/04/01 05:03:20;;;;;;;0.75;0.20;;;;;;;13.63;89.80;97815.63;10383226;28;20153;-62
2024/04/01 05:08:20;;;;;;;1.70;0.43;;;;;;;13.54;90.96;97768.69;10397454;28;20072;-60
2024/04/01 05:13:21;;;;;;;0.88;0.30;;;;;;;13.64;89.47;97785.16;10406799;28;20117;-60
2024/04/01 05:18:21;;;;;;;1.70;0.40;;;;;;;13.63;88.80;97778.19;10406671;28;20044;-65
2024/04/01 05:23:22;;;;;;;2.53;0.30;;;;;;;13.63;88.96;97780.88;10408385;28;20051;-67
2024/04/01 05:28:22;;;;;;;0.73;0.20;;;;;;;13.64;89.15;97785.16;10402345;28;20675;-64
2024/04/01 05:33:23;;;;;;;1.13;0.20;;;;;;;13.53;89.24;97794.59;10406791;28;20107;-68
2024/04/01 05:38:23;;;;;;;4.47;0.30;;;;;;;13.42;89.73;97809.38;10400775;28;20151;-67
2024/04/01 05:43:24;;;;;;;1.70;0.10;;;;;;;13.36;90.93;97830.72;10403962;28;20813;-67
2024/04/01 05:48:24;;;;;;;1.00;0.20;;;;;;;13.42;91.62;97856.66;10404790;28;20052;-66
2024/04/01 05:53:25;;;;;;;2.42;0.32;;;;;;;13.36;92.27;97863.63;10398459;28;20116;-65
2024/04/01 05:58:25;;;;;;;1.05;0.20;;;;;;;13.20;92.17;97850.59;10388849;28;20125;-65
2024/04/01 06:03:26;;;;;;;2.08;0.60;;;;;;;13.39;94.25;97884.63;10391892;28;20045;-66
2024/04/01 06:08:26;;;;;;;3.65;1.58;;;;;;;13.18;97.35;97898.88;10405766;28;20128;-67
2024/04/01 06:13:27;;;;;;;4.15;1.90;;;;;;;12.92;99.12;97859.47;10396160;28;20094;-64
2024/04/01 06:18:28;;;;;;;5.97;2.22;;;;;;;12.94;100.00;97892.16;10391738;28;20057;-65
2024/04/01 06:23:28;;;;;;;3.72;1.90;;;;;;;12.89;100.00;97878.56;10407092;28;20533;-63
2024/04/01 06:28:28;;;;;;;2.67;1.60;;;;;;;13.03;100.00;97864.28;10388134;28;20872;-67
2024/04/01 06:33:29;;;;;;;6.30;2.47;;;;;;;13.05;100.00;97854.22;10361721;28;20067;-66
2024/04/01 06:38:30;;;;;;;2.95;1.60;;;;;;;13.11;100.00;97855.28;10358978;28;20045;-66
2024/04/01 06:43:31;;;;;;;3.47;1.00;;;;;;;13.15;100.00;97850.34;10399409;28;20136;-65
2024/04/01 06:48:31;;;;;;;3.10;0.73;;;;;;;13.18;100.00;97857.97;10408647;28;20679;-65
2024/04/01 06:53:32;;;;;;;2.50;1.20;;;;;;;13.12;100.00;97893.47;10384049;28;20048;-67
2024/04/01 06:58:32;;;;;;;2.10;1.38;;;;;;;13.03;100.00;97900.81;10387365;28;20603;-65
2024/04/01 07:03:33;;;;;;;1.40;0.50;;;;;;;12.97;100.00;97915.81;10388207;28;20127;-68
2024/04/01 07:08:33;;;;;;;1.40;0.85;;;;;;;12.91;100.00;97935.28;10380614;28;20632;-68
2024/04/01 07:13:34;;;;;;;2.25;1.08;;;;;;;12.83;100.00;97927.41;10365814;28;20048;-66
2024/04/01 07:18:35;;;;;;;1.73;1.33;;;;;;;12.72;100.00;97932.25;10401686;28;20060;-68
2024/04/01 07:23:36;;;;;;;3.05;1.20;;;;;;;12.34;100.00;97921.91;10398191;28;20050;-66
2024/04/01 07:28:36;;;;;;;1.20;1.10;;;;;;;12.56;100.00;97948.56;10381838;28;20131;-66
2024/04/01 07:33:37;;;;;;;1.90;1.00;;;;;;;12.60;100.00;97960.50;10399153;28;20057;-65
2024/04/01 07:38:37;;;;;;;1.88;1.17;;;;;;;12.53;100.00;97971.09;10399487;28;20049;-65
2024/04/01 07:43:39;;;;;;;1.73;1.08;;;;;;;12.19;100.00;97932.66;10405265;28;20076;-68
2024/04/01 07:48:39;;;;;;;1.08;0.85;;;;;;;12.63;100.00;97970.78;10402998;28;20137;-63
2024/04/01 07:53:40;;;;;;;1.52;0.52;;;;;;;12.49;100.00;97934.31;10388787;28;20132;-64
2024/04/01 07:58:40;;;;;;;1.83;0.43;;;;;;;12.57;100.00;97978.75;10402682;28;20051;-65
2024/04/01 08:03:41;;;;;;;1.45;0.40;;;;;;;12.69;100.00;97980.69;10393578;28;20606;-65
2024/04/01 08:08:41;;;;;;;0.80;0.43;;;;;;;12.66;100.00;97991.75;10398934;28;20095;-64
2024/04/01 08:13:42;;;;;;;1.88;0.60;;;;;;;12.70;100.00;97985.03;10399153;28;20048;-64
2024/04/01 08:18:42;;;;;;;2.53;0.70;;;;;;;12.69;100.00;97980.69;10390501;28;20045;-65
2024/04/01 08:23:43;;;;;;;0.70;0.50;;;;;;;12.73;100.00;97997.97;10412485;28;20053;-65
2024/04/01 08:28:43;;;;;;;1.77;0.85;;;;;;;12.72;100.00;97999.00;10380601;28;20075;-68
2024/04/01 08:33:44;;;;;;;1.33;0.40;;;;;;;12.62;100.00;98017.16;10386209;28;20059;-64
2024/04/01 08:38:44;;;;;;;1.63;0.50;;;;;;;12.57;100.00;98029.47;10386471;28;20494;-66
2024/04/01 08:43:56;;;;;;;0.52;0.20;;;;;;;12.40;100.00;98043.03;10398690;28;20048;-65
2024/04/01 08:49:01;;;;;;;0.77;0.30;;;;;;;12.44;100.00;98040.81;10403655;28;20135;-64
2024/04/01 08:54:02;;;;;;;0.45;0.10;;;;;;;12.56;100.00;98039.28;10388694;28;20053;-68
2024/04/01 08:59:03;;;;;;;1.65;0.28;;;;;;;12.62;100.00;98057.19;10398693;28;20559;-64
2024/04/01 09:04:03;;;;;;;1.85;0.10;;;;;;;12.45;99.53;98056.63;10394434;28;20079;-65
2024/04/01 09:09:04;;;;;;;1.08;0.20;;;;;;;12.23;100.00;98087.78;10379121;28;20044;-65
2024/04/01 09:14:05;;;;;;;0.20;0.10;;;;;;;12.07;98.16;98078.16;10390680;28;20447;-68
2024/04/01 09:19:09;;;;;;;0.22;0.00;;;;;;;12.05;96.66;98074.03;10403223;28;20525;-67
2024/04/01 09:24:10;;;;;;;0.63;0.10;;;;;;;11.98;93.45;98085.44;10406787;28;20171;-65
2024/04/01 09:29:11;;;;;;;0.00;0.00;;;;;;;12.12;93.91;98099.75;10400696;28;20234;-66
2024/04/01 09:34:11;;;;;;;0.90;0.10;;;;;;;12.18;93.94;98099.00;10398442;28;20056;-68
2024/04/01 09:39:13;;;;;;;0.73;0.10;;;;;;;12.10;94.00;98109.78;10401088;28;20728;-65
2024/04/01 09:44:13;;;;;;;0.20;0.10;;;;;;;12.13;93.46;98121.91;10404776;28;20262;-66
2024/04/01 09:49:14;;;;;;;0.28;0.08;;;;;;;12.18;93.78;98114.19;10398028;28;20060;-65
2024/04/01 09:54:15;;;;;;;0.50;0.00;;;;;;;11.97;90.93;98118.44;10397759;28;20061;-64
2024/04/01 09:59:36;;;;;;;0.50;0.00;;;;;;;11.96;92.12;98131.94;10385835;28;20052;-66
2024/04/01 10:05:05;;;;;;;0.40;0.10;;;;;;;12.17;90.78;98157.88;10411939;28;20133;-66
2024/04/01 10:10:21;;;;;;;1.55;0.20;;;;;;;12.18;90.91;98170.19;10402698;28;20650;-65
2024/04/01 10:15:40;;;;;;;0.13;0.08;;;;;;;12.03;93.14;98194.19;10406047;28;20160;-66
2024/04/01 10:21:08;;;;;;;0.50;0.10;;;;;;;11.84;94.28;98184.84;10399974;28;20112;-69
2024/04/01 10:26:28;;;;;;;6.05;3.08;;;;;;;11.82;94.96;98195.72;10387250;28;20057;-66
2024/04/01 10:31:47;;;;;;;0.65;0.30;;;;;;;11.81;93.78;98195.88;10389511;28;20142;-64
2024/04/01 10:37:21;;;;;;;0.60;0.20;;;;;;;11.84;94.75;98211.50;10377669;28;20037;-66
2024/04/01 10:42:34;;;;;;;0.63;0.17;;;;;;;11.79;95.47;98224.56;10377698;28;20052;-63
2024/04/01 10:48:07;;;;;;;1.13;0.57;;;;;;;11.81;93.80;98238.53;10385150;28;20674;-64
2024/04/01 10:53:35;;;;;;;0.55;0.22;;;;;;;11.68;93.01;98234.66;10421628;28;20116;-63
2024/04/01 10:59:10;;;;;;;2.50;1.63;;;;;;;11.80;93.35;98261.72;10367638;28;20140;-60
2024/04/01 11:04:23;;;;;;;1.10;1.00;;;;;;;11.60;93.42;98266.69;10392197;28;20132;-60
2024/04/01 11:09:41;;;;;;;2.70;1.67;;;;;;;11.70;94.00;98277.13;10414177;28;20160;-60
2024/04/01 11:14:44;;;;;;;0.77;0.57;;;;;;;11.83;93.43;98276.53;10396126;28;20209;-61
2024/04/01 11:19:51;;;;;;;0.65;0.20;;;;;;;11.89;93.48;98291.78;10404030;28;20489;-59
2024/04/01 11:25:13;;;;;;;2.08;1.88;;;;;;;11.85;93.82;98279.81;10367794;28;20160;-61
2024/04/01 11:30:33;;;;;;;2.58;2.35;;;;;;;12.03;92.45;98266.19;10395816;28;20136;-60
2024/04/01 11:35:46;;;;;;;14.00;12.90;;;;;;;12.02;93.62;98285.88;10341159;28;20070;-60
2024/04/01 11:40:50;;;;;;;0.40;0.20;;;;;;;11.95;93.87;98292.91;10376818;28;20135;-60
2024/04/01 11:45:52;;;;;;;1.37;0.50;;;;;;;12.10;93.67;98295.63;10403563;28;20136;-60
2024/04/01 11:50:59;;;;;;;0.70;0.45;;;;;;;12.15;93.54;98299.41;10364997;28;20292;-64
2024/04/01 11:55:59;;;;;;;1.52;0.30;;;;;;;12.41;92.23;98311.50;10361548;28;20132;-64
2024/04/01 12:01:01;;;;;;;16.10;14.63;;;;;;;12.31;93.33;98319.78;10389311;28;20101;-59
2024/04/01 12:06:04;;;;;;;1.60;1.13;;;;;;;12.29;93.43;98336.97;10396711;28;20929;-59
2024/04/01 12:11:06;;;;;;;1.90;1.05;;;;;;;12.07;95.03;98349.31;10402012;28;20136;-59
2024/04/01 12:16:11;;;;;;;1.30;0.50;;;;;;;12.02;97.51;98341.88;10383786;28;20142;-59
2024/04/01 12:21:12;;;;;;;7.10;6.50;;;;;;;12.05;100.00;98356.69;10390232;28;20143;-59
2024/04/01 12:26:14;;;;;;;4.57;4.38;;;;;;;12.05;100.00;98356.69;10399009;28;20324;-59
2024/04/01 12:31:16;;;;;;;0.95;0.30;;;;;;;11.96;100.00;98379.91;10373219;28;20049;-59
2024/04/01 12:36:18;;;;;;;0.45;0.20;;;;;;;11.96;100.00;98396.72;10397173;28;20172;-59
2024/04/01 12:41:20;;;;;;;0.60;0.20;;;;;;;12.02;100.00;98409.38;10400049;28;20057;-59
2024/04/01 12:46:22;;;;;;;1.10;0.15;;;;;;;12.02;99.69;98417.38;10399994;28;20041;-60
2024/04/01 12:51:26;;;;;;;0.73;0.20;;;;;;;12.10;98.65;98439.63;10398011;28;20052;-59
2024/04/01 12:56:38;;;;;;;0.77;0.30;;;;;;;12.13;94.46;98456.13;10407276;28;20587;-59
2024/04/01 13:01:53;;;;;;;0.35;0.00;;;;;;;12.27;91.24;98475.88;10398818;28;20180;-58
2024/04/01 13:07:40;;;;;;;0.10;0.03;;;;;;;12.34;91.11;98490.16;10387964;28;20159;-59
2024/04/01 13:13:11;;;;;;;0.60;0.10;;;;;;;12.58;89.14;98501.66;10360750;28;20156;-59
2024/04/01 13:18:31;;;;;;;0.00;0.00;;;;;;;12.61;88.86;98522.66;10394314;28;21175;-59
2024/04/01 13:23:37;;;;;;;0.30;0.20;;;;;;;12.41;88.91;98534.81;10383812;28;20041;-59
2024/04/01 13:28:47;;;;;;;1.02;0.17;;;;;;;12.36;89.11;98562.84;10398178;28;20282;-59
2024/04/01 13:34:06;;;;;;;0.45;0.20;;;;;;;12.29;89.12;98583.22;10391928;28;20180;-63
2024/04/01 13:39:28;;;;;;;0.20;0.20;;;;;;;12.40;87.10;98602.50;10402114;28;20127;-62
2024/04/01 13:44:45;;;;;;;0.70;0.10;;;;;;;12.23;85.88;98594.59;10399686;28;20486;-65
2024/04/01 13:49:48;;;;;;;0.80;0.73;;;;;;;12.35;86.50;98608.38;10393876;28;20951;-63
2024/04/01 13:55:06;;;;;;;0.57;0.20;;;;;;;12.54;85.03;98615.94;10401539;28;20064;-62
2024/04/01 14:00:21;;;;;;;1.85;0.28;;;;;;;12.38;84.64;98627.56;10399266;28;20207;-64
2024/04/01 14:05:24;;;;;;;0.40;0.10;;;;;;;12.44;83.00;98631.34;10403658;28;20151;-65
2024/04/01 14:10:37;;;;;;;1.10;0.10;;;;;;;12.34;82.60;98644.91;10385893;28;20160;-63
2024/04/01 14:16:05;;;;;;;1.02;0.10;;;;;;;12.36;83.42;98648.22;10400947;28;20498;-69
2024/04/01 14:21:06;;;;;;;0.30;0.10;;;;;;;12.43;82.05;98634.19;10395975;28;20041;-65
2024/04/01 14:26:06;;;;;;;2.05;0.43;;;;;;;12.47;79.58;98649.66;10392057;28;20064;-68
2024/04/01 14:31:07;;;;;;;1.00;0.10;;;;;;;12.07;81.11;98632.00;10401532;28;20124;-67
2024/04/01 14:36:08;;;;;;;1.42;0.30;;;;;;;12.34;82.31;98654.72;10407791;28;20135;-67
2024/04/01 14:41:08;;;;;;;1.83;0.40;;;;;;;11.98;82.58;98657.88;10410180;28;20223;-66
2024/04/01 14:46:09;;;;;;;2.22;0.22;;;;;;;12.17;81.70;98659.31;10406132;28;20048;-65
2024/04/01 14:51:10;;;;;;;0.35;0.10;;;;;;;11.94;82.53;98678.72;10388144;28;20053;-65
2024/04/01 14:56:11;;;;;;;0.45;0.20;;;;;;;11.90;83.82;98680.03;10404905;28;20574;-66
2024/04/01 15:01:12;;;;;;;1.00;0.20;;;;;;;11.92;83.68;98686.03;10404661;28;20264;-64
2024/04/01 15:06:12;;;;;;;2.22;0.40;;;;;;;11.89;82.97;98693.53;10411016;28;20048;-65
2024/04/01 15:11:13;;;;;;;2.25;0.50;;;;;;;11.96;84.98;98698.03;10382984;28;20413;-62
2024/04/01 15:16:15;;;;;;;1.55;0.60;;;;;;;11.98;84.03;98709.38;10369787;28;20436;-64
2024/04/01 15:21:16;;;;;;;0.98;0.30;;;;;;;12.02;84.67;98701.88;10392053;28;20520;-65
2024/04/01 15:26:17;;;;;;;1.00;0.38;;;;;;;11.80;82.71;98674.03;10384817;28;20076;-66
2024/04/01 15:31:18;;;;;;;0.55;0.32;;;;;;;12.00;83.66;98717.22;10402006;28;20056;-66
2024/04/01 15:36:20;;;;;;;1.38;0.40;;;;;;;11.96;83.51;98711.38;10404792;28;20203;-68
2024/04/01 15:41:23;;;;;;;1.23;0.20;;;;;;;11.94;83.80;98721.38;10417839;28;20139;-66
2024/04/01 15:46:30;;;;;;;1.25;0.30;;;;;;;11.83;82.27;98706.56;10385412;28;20140;-68
2024/04/01 15:51:31;;;;;;;1.33;0.38;;;;;;;11.98;84.06;98704.06;10389626;28;20232;-64
2024/04/01 15:56:33;;;;;;;1.55;0.32;;;;;;;12.12;84.24;98704.34;10365914;28;20120;-65
2024/04/01 16:01:34;;;;;;;0.98;0.50;;;;;;;12.38;83.48;98694.25;10389054;28;20239;-67
2024/04/01 16:06:35;;;;;;;1.63;0.40;;;;;;;12.50;82.29;98699.19;10413131;28;20128;-63
2024/04/01 16:11:36;;;;;;;0.43;0.20;;;;;;;12.54;82.79;98688.00;10418739;28;20053;-65
2024/04/01 16:16:41;;;;;;;1.13;0.40;;;;;;;12.63;82.48;98690.63;10403910;28;20147;-68
2024/04/01 16:21:56;;;;;;;0.90;0.50;;;;;;;12.53;83.51;98685.50;10399144;28;20108;-65
2024/04/01 16:27:01;;;;;;;0.70;0.15;;;;;;;12.31;82.73;98669.28;10401500;28;20109;-66
2024/04/01 16:32:02;;;;;;;0.70;0.35;;;;;;;12.44;84.04;98697.22;10406252;28;20139;-67
2024/04/01 16:37:04;;;;;;;0.55;0.30;;;;;;;12.44;84.45;98699.91;10396826;28;20148;-66
2024/04/01 16:42:05;;;;;;;0.70;0.30;;;;;;;12.34;84.47;98703.59;10402069;28;20045;-70
2024/04/01 16:47:07;;;;;;;0.70;0.47;;;;;;;12.21;85.55;98703.31;10365675;28;20547;-62
2024/04/01 16:52:09;;;;;;;1.17;0.35;;;;;;;12.30;86.09;98707.63;10359432;28;20521;-64
2024/04/01 16:57:10;;;;;;;0.90;0.28;;;;;;;12.07;85.90;98686.19;10357410;28;20052;-65
2024/04/01 17:02:12;;;;;;;1.08;0.35;;;;;;;12.26;86.93;98711.63;10348826;28;20679;-63
2024/04/01 17:07:12;;;;;;;1.17;0.30;;;;;;;12.09;84.71;98700.19;10367940;28;20056;-64
2024/04/01 17:12:13;;;;;;;0.68;0.43;;;;;;;12.25;85.59;98720.66;10352770;28;20061;-63
2024/04/01 17:17:14;;;;;;;1.20;0.80;;;;;;;12.15;85.19;98722.69;10370193;28;20148;-63
2024/04/01 17:22:14;;;;;;;0.98;0.70;;;;;;;12.10;84.14;98714.34;10373285;28;20688;-65
2024/04/01 17:27:15;;;;;;;3.45;0.63;;;;;;;11.94;84.86;98718.72;10392515;28;20059;-62
2024/04/01 17:32:17;;;;;;;4.25;1.05;;;;;;;11.94;84.46;98729.38;10410270;28;20120;-64
2024/04/01 17:37:20;;;;;;;3.08;1.30;;;;;;;12.01;84.83;98718.88;10385723;28;20135;-63
2024/04/01 17:42:23;;;;;;;1.23;0.77;;;;;;;11.86;83.66;98724.06;10397918;28;20254;-64
2024/04/01 17:47:24;;;;;;;1.43;0.80;;;;;;;11.90;83.30;98730.69;10400054;28;20190;-66
2024/04/01 17:52:28;;;;;;;1.63;0.80;;;;;;;11.81;82.56;98729.03;10396258;28;21087;-63
2024/04/01 17:57:29;;;;;;;2.42;0.90;;;;;;;11.82;82.26;98736.03;10411068;28;20136;-62
2024/04/01 18:02:30;;;;;;;3.30;1.10;;;;;;;11.83;83.10;98743.06;10404206;28;21050;-65
2024/04/01 18:07:30;;;;;;;2.15;0.70;;;;;;;11.74;84.22;98752.88;10404462;28;20076;-65
2024/04/01 18:12:31;;;;;;;2.00;0.70;;;;;;;11.73;86.84;98761.88;10400429;28;20686;-64
2024/04/01 18:17:32;;;;;;;1.02;0.70;;;;;;;11.77;86.72;98765.88;10385397;28;20057;-63
2024/04/01 18:22:33;;;;;;;2.40;0.85;;;;;;;11.68;87.58;98766.88;10374240;28;20545;-63
2024/04/01 18:27:35;;;;;;;2.70;1.17;;;;;;;11.67;87.83;98775.88;10396625;28;20501;-63
2024/04/01 18:32:38;;;;;;;2.08;1.35;;;;;;;11.60;89.09;98785.53;10404120;28;20148;-64
2024/04/01 18:37:42;;;;;;;2.00;0.95;;;;;;;11.45;88.81;98758.69;10386846;28;20897;-65
2024/04/01 18:42:42;;;;;;;2.87;1.03;;;;;;;11.31;89.61;98747.69;10360730;28;20204;-63
2024/04/01 18:47:43;;;;;;;1.95;1.02;;;;;;;11.38;90.30;98797.66;10358388;28;20155;-64
2024/04/01 18:52:44;;;;;;;0.93;0.80;;;;;;;11.36;91.46;98800.47;10401078;28;20498;-63
2024/04/01 18:57:44;;;;;;;3.22;0.80;;;;;;;11.31;91.79;98814.28;10382174;28;20040;-63
2024/04/01 19:02:45;;;;;;;0.95;0.60;;;;;;;11.27;92.46;98820.97;10393436;28;20056;-63
2024/04/01 19:07:47;;;;;;;2.35;1.55;;;;;;;11.28;92.88;98825.28;10385576;28;20128;-63
2024/04/01 19:12:48;;;;;;;1.73;0.68;;;;;;;11.24;93.22;98831.09;10373107;28;20756;-62
2024/04/01 19:17:48;;;;;;;1.90;0.80;;;;;;;11.13;93.50;98826.91;10407344;28;20072;-61
2024/04/01 19:22:48;;;;;;;1.83;1.08;;;;;;;11.05;94.13;98825.06;10402596;28;20167;-63
2024/04/01 19:27:49;;;;;;;1.98;0.60;;;;;;;11.16;93.13;98837.25;10391329;28;20117;-64
2024/04/01 19:32:49;;;;;;;2.20;0.65;;;;;;;11.17;93.55;98854.91;10372484;28;20041;-66
2024/04/01 19:37:50;;;;;;;2.00;0.90;;;;;;;11.24;93.36;98860.41;10399467;28;20095;-62
2024/04/01 19:42:50;;;;;;;2.20;0.80;;;;;;;11.16;93.06;98853.22;10403984;28;20056;-64
2024/04/01 19:47:51;;;;;;;1.92;0.52;;;;;;;11.30;93.10;98870.41;10398851;28;21154;-62
2024/04/01 19:52:54;;;;;;;1.30;0.65;;;;;;;11.37;92.43;98870.59;10401441;28;20063;-65
2024/04/01 19:57:55;;;;;;;1.50;1.00;;;;;;;11.40;92.11;98868.44;10406811;28;20689;-63
2024/04/01 20:02:55;;;;;;;1.45;0.80;;;;;;;11.23;93.24;98874.69;10402083;28;20052;-63
2024/04/01 20:07:56;;;;;;;1.27;0.70;;;;;;;11.31;93.03;98878.22;10394419;28;20067;-64
2024/04/01 20:12:56;;;;;;;1.08;0.60;;;;;;;11.00;92.77;98851.31;10394277;28;20095;-63
2024/04/01 20:17:57;;;;;;;2.08;0.70;;;;;;;11.27;93.25;98887.56;10400534;28;20535;-62
2024/04/01 20:23:01;;;;;;;1.63;0.80;;;;;;;11.30;92.83;98881.06;10371354;28;20583;-63
2024/04/01 20:28:05;;;;;;;1.42;0.68;;;;;;;11.22;92.37;98879.19;10365157;28;20053;-62
2024/04/01 20:33:08;;;;;;;2.15;1.08;;;;;;;11.24;92.50;98882.53;10376021;28;20195;-63
2024/04/01 20:38:08;;;;;;;1.60;0.80;;;;;;;11.14;93.42;98881.84;10403770;28;20056;-63
2024/04/01 20:43:13;;;;;;;2.00;0.85;;;;;;;10.98;94.00;98887.94;10398708;28;20048;-64
2024/04/01 20:48:24;;;;;;;3.42;0.50;;;;;;;10.86;94.96;98879.38;10408493;28;20695;-63
2024/04/01 20:53:35;;;;;;;1.00;0.70;;;;;;;10.82;95.14;98882.53;10399216;28;20143;-63
2024/04/01 20:58:35;;;;;;;1.30;0.70;;;;;;;10.84;95.52;98888.50;10383657;28;20654;-62
2024/04/01 21:03:36;;;;;;;1.20;0.63;;;;;;;10.89;95.44;98886.22;10405060;28;20056;-64
2024/04/01 21:08:37;;;;;;;1.38;0.82;;;;;;;10.87;95.37;98894.38;10386421;28;20226;-63
2024/04/01 21:13:38;;;;;;;1.88;0.90;;;;;;;10.85;95.40;98904.31;10387253;28;20059;-62
2024/04/01 21:18:41;;;;;;;1.63;0.80;;;;;;;10.72;95.75;98909.25;10395943;28;20163;-64
2024/04/01 21:23:42;;;;;;;0.82;0.50;;;;;;;10.68;96.39;98907.91;10403489;28;20202;-63
2024/04/01 21:28:42;;;;;;;1.67;0.88;;;;;;;10.69;96.56;98914.88;10399725;28;20189;-63
2024/04/01 21:33:43;;;;;;;1.38;0.80;;;;;;;10.65;96.75;98908.22;10398470;28;20052;-64
2024/04/01 21:38:43;;;;;;;1.33;0.80;;;;;;;10.77;96.08;98922.94;10405533;28;20103;-62
2024/04/01 21:43:43;;;;;;;1.67;0.95;;;;;;;10.74;96.40;98925.91;10409728;28;20041;-63
2024/04/01 21:48:44;;;;;;;1.77;0.90;;;;;;;10.71;96.54;98924.38;10377583;28;20053;-63
2024/04/01 21:53:44;;;;;;;2.00;0.60;;;;;;;10.75;96.57;98908.97;10381711;28;20044;-64
2024/04/01 21:58:45;;;;;;;2.00;0.80;;;;;;;10.76;96.48;98923.91;10404929;28;20121;-63
2024/04/01 22:03:45;;;;;;;2.55;1.00;;;;;;;10.73;96.62;98929.56;10376157;28;20666;-63
2024/04/01 22:08:46;;;;;;;1.33;0.52;;;;;;;10.74;97.22;98939.22;10389895;28;20053;-63
2024/04/01 22:13:46;;;;;;;1.90;0.75;;;;;;;10.67;97.70;98943.50;10397252;28;20055;-62
2024/04/01 22:18:46;;;;;;;0.98;0.68;;;;;;;10.60;98.22;98935.31;10398574;28;20048;-62
2024/04/01 22:23:49;;;;;;;2.75;1.40;;;;;;;10.52;98.94;98935.22;10417553;28;20147;-65
2024/04/01 22:28:49;;;;;;;2.45;1.02;;;;;;;10.43;99.29;98945.84;10403470;28;20061;-63
2024/04/01 22:33:50;;;;;;;2.38;1.23;;;;;;;10.37;99.85;98937.63;10399414;28;20835;-62
2024/04/01 22:38:50;;;;;;;2.50;1.00;;;;;;;10.39;99.88;98952.44;10390171;28;20418;-63
2024/04/01 22:43:51;;;;;;;1.80;1.00;;;;;;;10.33;100.00;98949.50;10363926;28;20897;-62
2024/04/01 22:48:51;;;;;;;1.95;0.93;;;;;;;10.27;100.00;98949.16;10400871;28;20040;-63
2024/04/01 22:53:52;;;;;;;1.80;1.35;;;;;;;10.24;100.00;98951.28;10399362;28;20052;-64
2024/04/01 22:58:54;;;;;;;1.67;0.88;;;;;;;10.24;99.66;98960.09;10408851;28;20090;-63
2024/04/01 23:03:54;;;;;;;2.08;1.10;;;;;;;10.16;99.33;98962.66;10418676;28;20591;-64
2024/04/01 23:08:55;;;;;;;1.90;0.60;;;;;;;10.06;99.12;98968.06;10409400;28;20048;-63
2024/04/01 23:13:55;;;;;;;1.33;0.63;;;;;;;9.99;98.95;98976.81;10403947;28;20051;-65
2024/04/01 23:18:59;;;;;;;1.08;0.52;;;;;;;9.96;98.62;98971.81;10377308;28;20468;-64
2024/04/01 23:24:05;;;;;;;0.80;0.30;;;;;;;9.69;97.72;98960.22;10400292;28;20141;-64
2024/04/01 23:29:06;;;;;;;3.03;0.85;;;;;;;9.82;97.23;98994.44;10387219;28;20132;-64